createdAt,value
2022-11-25T00:19:45.266Z,97773.22
2022-11-25T00:49:50.644Z,97770.88
2022-11-25T01:19:54.768Z,97776.34
2022-11-25T01:50:03.095Z,97752.09
2022-11-25T02:20:08.809Z,97735.34
2022-11-25T02:50:13.907Z,97723.03
2022-11-25T03:20:18.671Z,97730.75
2022-11-25T03:50:22.877Z,97733.53
2022-11-25T04:20:27.404Z,97730.47
2022-11-25T04:50:32.643Z,97721.25
2022-11-25T05:20:36.792Z,97763.34
2022-11-25T05:50:40.947Z,97745.94
2022-11-25T06:20:45.340Z,97778.31
2022-11-25T06:50:58.646Z,97803.78
2022-11-25T07:21:08.015Z,97828.44
2022-11-25T07:51:20.303Z,97874.91
2022-11-25T08:21:24.778Z,97885.75
2022-11-25T08:51:31.099Z,97915.34
2022-11-25T09:21:35.362Z,97947.94
2022-11-25T09:51:43.194Z,97991.19
2022-11-25T10:21:47.733Z,98004.47
2022-11-25T10:51:52.165Z,97999.72
2022-11-25T11:21:57.375Z,98041.66
2022-11-25T11:52:07.721Z,98064.69
2022-11-25T12:22:12.464Z,98092.31
2022-11-25T12:52:34.499Z,98118.50
2022-11-25T13:22:38.863Z,98160.34
2022-11-25T13:52:44.873Z,98186.31
2022-11-25T14:23:24.185Z,98205.47
2022-11-25T14:53:29.283Z,98242.44
2022-11-25T15:23:37.781Z,98270.72
2022-11-25T15:53:44.121Z,98319.75
2022-11-25T16:23:50.231Z,98359.78
2022-11-25T16:53:54.562Z,98399.72
2022-11-25T17:24:02.634Z,98435.75
2022-11-25T17:54:06.900Z,98479.72
2022-11-25T18:24:11.250Z,98518.81
2022-11-25T18:54:15.566Z,98587.53
2022-11-25T19:24:19.849Z,98636.69
2022-11-25T19:54:24.113Z,98676.28
2022-11-25T20:24:28.419Z,98721.31
2022-11-25T20:54:35.887Z,98752.66
2022-11-25T21:24:42.665Z,98787.03
2022-11-25T21:54:47.087Z,98821.63
2022-11-25T22:24:51.474Z,98857.53
2022-11-25T22:54:56.018Z,98892.25
2022-11-25T23:25:00.164Z,98919.44
2022-11-25T23:55:04.983Z,98948.91
